Time;durP1;ratioP1;P1;durP2;ratioP2;P2;SDS_P1;SDS_P2;PMS_P1;PMS_P2;Temp;Humidity;BMP_temperature;BMP_pressure;BME280_temperature;BME280_humidity;BME280_pressure;Samples;Min_cycle;Max_cycle;Signal;HPM_P1;HPM_P2
2022/07/13 00:00:30;;;;;;;2.75;1.40;;;22.50;99.90;;;;;;4955181;28;20026;-93
2022/07/13 00:02:57;;;;;;;5.07;2.05;;;22.40;99.90;;;;;;4969350;28;20034;-92
2022/07/13 00:05:23;;;;;;;4.30;1.85;;;22.30;99.90;;;;;;4963559;28;20030;-92
2022/07/13 00:07:50;;;;;;;5.05;2.03;;;22.20;99.90;;;;;;4965974;28;20109;-93
2022/07/13 00:10:17;;;;;;;4.30;2.17;;;22.00;99.90;;;;;;4963887;28;20119;-92
2022/07/13 00:12:43;;;;;;;5.88;2.35;;;21.90;99.90;;;;;;4965418;28;20088;-91
2022/07/13 00:15:13;;;;;;;4.75;2.40;;;21.80;99.90;;;;;;4969080;28;20475;-90
2022/07/13 00:17:39;;;;;;;6.38;2.38;;;21.80;99.90;;;;;;4963460;28;20026;-91
2022/07/13 00:20:07;;;;;;;7.28;2.95;;;21.80;99.90;;;;;;4962521;28;20499;-92
2022/07/13 00:22:33;;;;;;;5.03;2.50;;;21.70;99.90;;;;;;4962583;28;20484;-92
2022/07/13 00:25:00;;;;;;;3.83;2.45;;;21.70;99.90;;;;;;4963803;28;20117;-91
2022/07/13 00:27:26;;;;;;;6.38;2.75;;;21.70;99.90;;;;;;4962815;28;20022;-92
2022/07/13 00:29:53;;;;;;;5.50;2.30;;;21.70;99.90;;;;;;4962494;28;20026;-93
2022/07/13 00:32:20;;;;;;;6.40;2.72;;;21.80;99.90;;;;;;4965643;28;20085;-91
2022/07/13 00:34:46;;;;;;;4.50;2.20;;;21.80;99.90;;;;;;4965313;28;20089;-92
2022/07/13 00:37:13;;;;;;;3.92;1.98;;;21.80;99.90;;;;;;4965460;28;20034;-91
2022/07/13 00:39:39;;;;;;;5.85;2.50;;;21.90;99.90;;;;;;4964684;28;20030;-91
2022/07/13 00:42:06;;;;;;;3.67;2.05;;;22.00;99.90;;;;;;4965535;28;20033;-91
2022/07/13 00:44:32;;;;;;;3.80;2.05;;;22.10;99.90;;;;;;4974503;28;20026;-92
2022/07/13 00:46:59;;;;;;;5.32;1.73;;;22.00;99.90;;;;;;4973946;28;20026;-92
2022/07/13 00:49:26;;;;;;;3.45;1.80;;;22.10;99.90;;;;;;4976495;28;20057;-91
2022/07/13 00:51:53;;;;;;;2.38;1.83;;;22.10;99.90;;;;;;4974877;28;20030;-89
2022/07/13 00:54:28;;;;;;;3.90;1.85;;;22.10;99.90;;;;;;4969357;28;20069;-91
2022/07/13 00:56:56;;;;;;;4.13;2.08;;;22.20;99.90;;;;;;4968866;28;20038;-91
2022/07/13 00:59:25;;;;;;;2.65;1.90;;;22.20;99.90;;;;;;4967881;28;20036;-91
2022/07/13 01:01:52;;;;;;;4.30;1.60;;;22.10;99.90;;;;;;4963479;28;20022;-91
2022/07/13 01:04:23;;;;;;;3.15;1.55;;;22.10;99.90;;;;;;4963252;28;20034;-91
2022/07/13 01:06:53;;;;;;;1.40;1.30;;;22.00;99.90;;;;;;4968071;28;20553;-90
2022/07/13 01:09:22;;;;;;;2.60;1.50;;;22.00;99.90;;;;;;4964223;28;20034;-91
2022/07/13 01:11:50;;;;;;;2.63;1.40;;;22.00;99.90;;;;;;4963035;28;20455;-89
2022/07/13 01:14:18;;;;;;;3.13;1.83;;;22.00;99.90;;;;;;4963202;28;20038;-91
2022/07/13 01:16:45;;;;;;;3.85;1.60;;;22.00;99.90;;;;;;4962704;28;20027;-90
2022/07/13 01:19:14;;;;;;;5.10;1.60;;;21.90;99.90;;;;;;4962985;28;20026;-92
2022/07/13 01:21:46;;;;;;;3.67;1.65;;;22.00;99.90;;;;;;4964264;28;20468;-92
2022/07/13 01:24:14;;;;;;;3.55;1.60;;;22.00;99.90;;;;;;4967562;28;20038;-91
2022/07/13 01:26:42;;;;;;;3.42;1.70;;;22.10;99.90;;;;;;4968712;28;20517;-90
2022/07/13 01:29:11;;;;;;;3.25;1.83;;;22.10;99.90;;;;;;4968890;28;20030;-90
2022/07/13 01:31:46;;;;;;;3.97;1.67;;;22.20;99.90;;;;;;4970457;28;20046;-91
2022/07/13 01:34:13;;;;;;;5.30;1.98;;;22.20;99.90;;;;;;4970410;28;20451;-90
2022/07/13 01:36:46;;;;;;;6.18;1.55;;;22.30;99.90;;;;;;4988738;28;20041;-91
2022/07/13 01:39:12;;;;;;;2.97;1.83;;;22.30;99.90;;;;;;4976553;28;20030;-90
2022/07/13 01:41:38;;;;;;;2.13;1.20;;;22.40;99.90;;;;;;4981107;28;20049;-91
2022/07/13 01:44:08;;;;;;;2.78;1.30;;;22.50;99.90;;;;;;4982533;28;20026;-89
2022/07/13 01:46:37;;;;;;;1.92;0.85;;;22.60;99.90;;;;;;4971202;28;20034;-88
2022/07/13 01:52:51;;;;;;;0.80;0.57;;;22.60;99.90;;;;;;5000948;28;20040;-91
2022/07/13 01:55:19;;;;;;;1.95;0.70;;;22.70;99.90;;;;;;4967314;28;20440;-90
2022/07/13 01:57:46;;;;;;;0.82;0.80;;;22.70;99.90;;;;;;4966772;28;20541;-90
2022/07/13 02:00:20;;;;;;;0.73;0.73;;;22.80;99.90;;;;;;4966236;28;20038;-90
2022/07/13 02:02:48;;;;;;;1.83;0.80;;;22.70;99.90;;;;;;4965698;28;20022;-90
2022/07/13 02:05:27;;;;;;;0.90;0.70;;;22.70;99.90;;;;;;4967362;28;20041;-90
2022/07/13 02:07:54;;;;;;;1.45;0.73;;;22.70;99.90;;;;;;4958629;29;20612;-89
2022/07/13 02:10:34;;;;;;;2.45;0.80;;;22.70;99.90;;;;;;4958950;29;20043;-90
2022/07/13 02:13:13;;;;;;;5.05;1.08;;;22.70;99.90;;;;;;4959077;29;20047;-91
2022/07/13 02:15:41;;;;;;;1.83;0.80;;;22.70;99.90;;;;;;4944206;29;20062;-90
2022/07/13 02:18:08;;;;;;;1.75;0.90;;;22.70;99.90;;;;;;4942632;29;20038;-90
2022/07/13 02:20:35;;;;;;;1.70;0.93;;;22.70;99.90;;;;;;4943369;29;20042;-91
2022/07/13 02:23:05;;;;;;;1.67;0.80;;;22.70;99.90;;;;;;4943051;29;20047;-89
2022/07/13 02:25:35;;;;;;;2.95;0.90;;;22.70;99.90;;;;;;4942964;29;20034;-92
2022/07/13 02:28:06;;;;;;;1.77;0.70;;;22.70;99.90;;;;;;4958728;29;20104;-90
2022/07/13 02:30:34;;;;;;;2.78;1.00;;;22.70;99.90;;;;;;4942245;29;20106;-91
2022/07/13 02:33:00;;;;;;;1.35;0.80;;;22.70;99.90;;;;;;4943328;29;20516;-90
2022/07/13 02:35:27;;;;;;;1.52;1.05;;;22.70;99.90;;;;;;4965672;28;20035;-90
2022/07/13 02:37:57;;;;;;;3.88;1.00;;;22.80;99.90;;;;;;4963382;28;20110;-91
2022/07/13 02:40:26;;;;;;;1.00;0.90;;;22.70;99.90;;;;;;4981390;28;20030;-90
2022/07/13 02:42:55;;;;;;;3.60;1.08;;;22.70;99.90;;;;;;4965660;28;20026;-90
2022/07/13 02:45:22;;;;;;;1.20;1.10;;;22.60;99.90;;;;;;4965691;28;20558;-89
2022/07/13 02:47:49;;;;;;;1.77;0.80;;;22.50;99.90;;;;;;4965367;28;20518;-90
2022/07/13 02:50:16;;;;;;;3.05;1.30;;;22.40;99.90;;;;;;4965334;28;20381;-90
2022/07/13 02:52:43;;;;;;;2.85;0.95;;;22.40;99.90;;;;;;4965130;28;20022;-92
2022/07/13 02:55:10;;;;;;;3.13;1.20;;;22.30;99.90;;;;;;4965460;28;20438;-89
2022/07/13 02:57:39;;;;;;;2.50;1.25;;;22.30;99.90;;;;;;4965592;28;20037;-91
2022/07/13 03:00:09;;;;;;;1.05;0.93;;;22.20;99.90;;;;;;4964432;28;20023;-90
2022/07/13 03:02:38;;;;;;;3.88;1.10;;;22.20;99.90;;;;;;4963993;28;20507;-92
2022/07/13 03:05:08;;;;;;;2.92;1.20;;;22.20;99.90;;;;;;4964209;28;20056;-92
2022/07/13 03:07:35;;;;;;;5.50;1.45;;;22.20;99.90;;;;;;4964220;28;20053;-91
2022/07/13 03:10:02;;;;;;;3.08;1.00;;;22.10;99.90;;;;;;4965321;28;20027;-91
2022/07/13 03:12:32;;;;;;;3.35;0.95;;;22.00;99.90;;;;;;4964589;28;20031;-91
2022/07/13 03:15:12;;;;;;;6.32;1.42;;;21.90;99.90;;;;;;4978428;28;20504;-94
2022/07/13 03:17:41;;;;;;;3.20;1.30;;;21.80;99.90;;;;;;4964342;28;20026;-93
2022/07/13 03:20:11;;;;;;;1.58;1.05;;;21.70;99.90;;;;;;4964498;28;20030;-91
2022/07/13 03:22:39;;;;;;;3.13;1.00;;;21.60;99.90;;;;;;4976047;28;20026;-90
2022/07/13 03:25:06;;;;;;;1.85;1.02;;;21.60;99.90;;;;;;4964877;28;20103;-93
2022/07/13 03:27:33;;;;;;;2.50;1.10;;;21.50;99.90;;;;;;4980340;28;20023;-91
2022/07/13 03:30:01;;;;;;;1.67;1.10;;;21.50;99.90;;;;;;4980437;28;20076;-92
2022/07/13 03:32:30;;;;;;;3.00;1.00;;;21.50;99.90;;;;;;4964557;28;20047;-91
2022/07/13 03:34:57;;;;;;;1.60;1.10;;;21.50;99.90;;;;;;4963793;28;20092;-91
2022/07/13 03:37:25;;;;;;;2.33;1.05;;;21.40;99.90;;;;;;4963733;28;20038;-91
2022/07/13 03:39:54;;;;;;;1.67;0.90;;;21.50;99.90;;;;;;4964040;28;20507;-91
2022/07/13 03:42:22;;;;;;;2.95;0.88;;;21.50;99.90;;;;;;4979838;28;20058;-90
2022/07/13 03:44:53;;;;;;;1.15;0.90;;;21.50;99.90;;;;;;4963430;28;20416;-90
2022/07/13 03:47:19;;;;;;;2.15;1.00;;;21.50;99.90;;;;;;4963771;28;20037;-92
2022/07/13 03:49:46;;;;;;;2.70;1.30;;;21.50;99.90;;;;;;4966560;28;20018;-91
2022/07/13 03:52:12;;;;;;;1.63;0.90;;;21.50;99.90;;;;;;4964253;28;20050;-91
2022/07/13 03:54:42;;;;;;;2.08;0.85;;;21.50;99.90;;;;;;4968299;28;20069;-91
2022/07/13 03:57:11;;;;;;;0.93;0.93;;;21.50;99.90;;;;;;4969352;28;20027;-92
2022/07/13 03:59:39;;;;;;;1.98;0.90;;;21.50;99.90;;;;;;4973921;28;20018;-92
2022/07/13 04:02:05;;;;;;;2.33;1.05;;;21.50;99.90;;;;;;4980802;28;20046;-90
2022/07/13 04:04:31;;;;;;;1.27;0.90;;;21.50;99.90;;;;;;4976905;28;20030;-91
2022/07/13 04:07:00;;;;;;;1.92;1.05;;;21.50;99.90;;;;;;4969138;28;20026;-90
2022/07/13 04:09:29;;;;;;;3.53;1.10;;;21.50;99.90;;;;;;4964642;28;20042;-90
2022/07/13 04:11:56;;;;;;;1.70;0.93;;;21.60;99.90;;;;;;4963085;28;20094;-92
2022/07/13 04:14:24;;;;;;;4.60;0.95;;;21.60;99.90;;;;;;4963461;28;20042;-91
2022/07/13 04:16:50;;;;;;;2.33;1.02;;;21.60;99.90;;;;;;4979876;28;20026;-92
2022/07/13 04:19:17;;;;;;;2.50;1.15;;;21.60;99.90;;;;;;4967614;28;20030;-90
2022/07/13 04:21:44;;;;;;;4.78;1.20;;;21.70;99.90;;;;;;4966912;28;20038;-91
2022/07/13 04:24:12;;;;;;;2.33;1.20;;;21.70;99.90;;;;;;4964098;28;20363;-93
2022/07/13 04:26:39;;;;;;;1.45;1.00;;;21.80;99.90;;;;;;4984965;28;20014;-90
2022/07/13 04:29:06;;;;;;;3.22;1.30;;;21.80;99.90;;;;;;4975884;28;20038;-91
2022/07/13 04:31:32;;;;;;;1.35;1.02;;;21.80;99.90;;;;;;4968365;28;20117;-91
2022/07/13 04:33:59;;;;;;;1.15;1.05;;;21.80;99.90;;;;;;4964081;28;20058;-93
2022/07/13 04:36:26;;;;;;;1.63;0.98;;;21.80;99.90;;;;;;4967988;28;20018;-93
2022/07/13 04:38:56;;;;;;;1.95;1.10;;;21.80;99.90;;;;;;4964654;28;20041;-93
2022/07/13 04:41:26;;;;;;;1.45;0.98;;;21.80;99.90;;;;;;4963636;28;20053;-90
2022/07/13 04:43:53;;;;;;;1.33;1.17;;;21.80;99.90;;;;;;4962138;28;20030;-91
2022/07/13 04:46:24;;;;;;;1.05;0.98;;;21.80;99.90;;;;;;4962620;28;20038;-92
2022/07/13 04:48:55;;;;;;;2.88;1.20;;;21.80;99.90;;;;;;4962622;28;20595;-93
2022/07/13 04:51:21;;;;;;;2.40;1.00;;;21.80;99.90;;;;;;4962209;28;20030;-91
2022/07/13 04:53:50;;;;;;;1.75;1.33;;;21.80;99.90;;;;;;4961948;28;20038;-91
2022/07/13 04:56:17;;;;;;;1.75;1.20;;;21.80;99.90;;;;;;4978484;28;20034;-91
2022/07/13 04:58:44;;;;;;;2.60;1.13;;;21.70;99.90;;;;;;4961915;28;20030;-94
2022/07/13 05:01:11;;;;;;;1.95;0.85;;;21.70;99.90;;;;;;4962497;28;20061;-92
2022/07/13 05:03:38;;;;;;;2.28;1.15;;;21.70;99.90;;;;;;4962295;28;20037;-90
2022/07/13 05:06:05;;;;;;;1.58;1.40;;;21.70;99.90;;;;;;4962043;28;20023;-90
2022/07/13 05:08:32;;;;;;;1.80;1.10;;;21.70;99.90;;;;;;4966018;28;20041;-90
2022/07/13 05:10:59;;;;;;;1.23;1.13;;;21.50;99.90;;;;;;4957927;28;20023;-92
2022/07/13 05:13:29;;;;;;;2.35;1.20;;;21.50;99.90;;;;;;4961732;28;20507;-93
2022/07/13 05:15:59;;;;;;;6.90;1.23;;;21.60;99.90;;;;;;4962254;28;20480;-93
2022/07/13 05:18:26;;;;;;;1.45;1.23;;;21.70;99.90;;;;;;4961901;28;20030;-90
2022/07/13 05:21:01;;;;;;;1.55;1.08;;;21.80;99.90;;;;;;4961987;28;20392;-92
2022/07/13 05:23:28;;;;;;;1.13;1.13;;;22.00;99.90;;;;;;4961794;28;20057;-94
2022/07/13 05:25:54;;;;;;;1.58;1.48;;;22.30;99.90;;;;;;4961984;28;20032;-91
2022/07/13 05:28:22;;;;;;;2.00;1.23;;;23.50;99.90;;;;;;4962890;28;20507;-91
2022/07/13 05:30:50;;;;;;;1.67;1.42;;;24.60;99.90;;;;;;4961608;28;20054;-91
2022/07/13 05:33:19;;;;;;;2.38;1.40;;;24.80;99.90;;;;;;4961575;28;20100;-90
2022/07/13 05:35:47;;;;;;;3.47;1.90;;;24.70;99.90;;;;;;4961471;28;20026;-92
2022/07/13 05:38:15;;;;;;;3.38;1.45;;;24.80;99.90;;;;;;4961672;28;20065;-92
2022/07/13 05:40:46;;;;;;;2.55;1.30;;;24.90;99.90;;;;;;4961845;28;20031;-90
2022/07/13 05:43:16;;;;;;;4.63;1.23;;;25.00;99.90;;;;;;4961513;28;20030;-93
2022/07/13 05:45:43;;;;;;;2.50;1.45;;;25.10;99.90;;;;;;4961523;28;20026;-92
2022/07/13 05:48:13;;;;;;;4.07;1.50;;;25.50;99.90;;;;;;4966940;28;20126;-91
2022/07/13 05:50:58;;;;;;;6.90;1.83;;;25.90;99.90;;;;;;4965884;28;20031;-93
2022/07/13 05:53:25;;;;;;;2.63;1.67;;;26.40;99.90;;;;;;4978110;28;20041;-92
2022/07/13 05:55:52;;;;;;;2.75;1.75;;;27.00;99.90;;;;;;4964679;28;20027;-92
2022/07/13 05:58:18;;;;;;;5.07;3.10;;;27.20;99.90;;;;;;4963280;28;20041;-95
2022/07/13 06:00:45;;;;;;;4.90;4.60;;;28.20;99.90;;;;;;4972099;28;20027;-94
2022/07/13 06:03:12;;;;;;;7.70;4.53;;;29.60;99.90;;;;;;4976871;28;20022;-93
2022/07/13 06:05:39;;;;;;;5.55;4.65;;;30.80;99.90;;;;;;4984423;28;20014;-93
2022/07/13 06:08:06;;;;;;;5.70;4.03;;;30.80;99.90;;;;;;4983238;28;20093;-94
2022/07/13 06:10:33;;;;;;;5.15;4.20;;;31.30;99.90;;;;;;4982911;28;20137;-95
2022/07/13 06:13:00;;;;;;;10.30;3.72;;;31.10;99.90;;;;;;4976635;28;20006;-93
2022/07/13 06:15:27;;;;;;;9.15;4.03;;;31.00;99.90;;;;;;4981542;28;20098;-94
2022/07/13 06:17:54;;;;;;;10.40;4.85;;;30.90;99.90;;;;;;4988797;28;20050;-94
2022/07/13 06:23:25;;;;;;;5.30;4.90;;;31.40;99.90;;;;;;5787618;23;20062;-94
2022/07/13 06:25:54;;;;;;;4.38;3.97;;;31.80;99.90;;;;;;4983806;28;20554;-93
2022/07/13 06:28:20;;;;;;;9.15;3.03;;;31.60;99.90;;;;;;4993307;28;20500;-95
2022/07/13 06:30:51;;;;;;;3.78;3.30;;;30.60;99.90;;;;;;4977444;28;20026;-94
2022/07/13 06:33:29;;;;;;;5.93;3.20;;;30.60;99.90;;;;;;4990808;28;20046;-94
2022/07/13 06:35:56;;;;;;;18.10;4.68;;;31.00;99.90;;;;;;4990230;28;20035;-94
2022/07/13 06:38:23;;;;;;;8.82;3.95;;;30.80;99.90;;;;;;4973633;28;20106;-95
2022/07/13 06:41:03;;;;;;;8.88;4.63;;;31.40;99.90;;;;;;4976801;28;20504;-95
2022/07/13 06:43:43;;;;;;;8.45;3.45;;;31.90;99.90;;;;;;4954428;29;20044;-93
2022/07/13 06:46:23;;;;;;;8.95;4.15;;;31.90;99.90;;;;;;4914427;29;20036;-94
2022/07/13 06:48:50;;;;;;;8.48;3.90;;;31.60;99.90;;;;;;4881632;29;20064;-94
2022/07/13 07:11:57;;;;;;;6.93;2.30;;;28.70;99.90;;;;;;5284016;23;20142;-94
2022/07/13 07:17:46;;;;;;;6.50;3.00;;;29.10;99.90;;;;;;4923374;29;20043;-94
2022/07/13 07:20:33;;;;;;;4.53;2.55;;;30.10;99.90;;;;;;4920883;29;20040;-94
2022/07/13 07:23:00;;;;;;;6.68;2.67;;;29.70;99.90;;;;;;4921832;29;20123;-94
2022/07/13 07:25:30;;;;;;;7.05;2.95;;;29.80;99.90;;;;;;4936031;29;20023;-94
2022/07/13 07:28:07;;;;;;;7.13;3.67;;;30.20;99.90;;;;;;4933867;29;20032;-94
2022/07/13 07:30:37;;;;;;;6.72;3.38;;;30.40;99.90;;;;;;4924102;29;20040;-94
2022/07/13 07:33:04;;;;;;;7.10;2.80;;;31.00;99.90;;;;;;4920845;29;20218;-93
2022/07/13 07:35:32;;;;;;;4.95;2.53;;;30.60;99.90;;;;;;4920975;29;20040;-93
2022/07/13 07:37:59;;;;;;;13.35;2.50;;;30.40;99.90;;;;;;4919435;29;20474;-92
2022/07/13 07:40:26;;;;;;;11.07;3.03;;;29.70;99.90;;;;;;4922682;29;20044;-93
2022/07/13 07:42:56;;;;;;;9.90;2.72;;;29.70;99.90;;;;;;4921882;29;20525;-93
2022/07/13 07:45:25;;;;;;;8.32;3.00;;;30.00;99.90;;;;;;4920691;29;20070;-93
2022/07/13 07:47:52;;;;;;;6.78;2.95;;;30.10;99.90;;;;;;4902385;29;20036;-94
2022/07/13 07:50:22;;;;;;;5.57;3.22;;;30.00;99.90;;;;;;4872317;29;20211;-94
2022/07/13 07:52:58;;;;;;;7.20;2.58;;;30.00;99.90;;;;;;4875076;29;20080;-93
2022/07/13 07:58:48;;;;;;;3.15;2.72;;;29.70;99.90;;;;;;4862311;29;20038;-92
2022/07/13 08:01:18;;;;;;;6.57;3.05;;;29.70;99.90;;;;;;4972709;23;20051;-93
2022/07/13 08:45:05;;;;;;;4.95;3.45;;;30.60;99.90;;;;;;4931485;29;20057;-93
2022/07/13 08:47:46;;;;;;;7.63;3.08;;;30.40;99.90;;;;;;4871403;29;20047;-93
2022/07/13 08:50:13;;;;;;;7.60;2.83;;;30.10;99.90;;;;;;4925886;29;20044;-93
2022/07/13 08:52:44;;;;;;;5.50;3.35;;;29.90;99.90;;;;;;4887460;29;20063;-93
2022/07/13 08:55:20;;;;;;;7.90;3.22;;;29.80;99.90;;;;;;4880061;29;20045;-93
2022/07/13 08:57:51;;;;;;;4.78;3.03;;;29.50;99.90;;;;;;4887334;29;20040;-92
2022/07/13 09:00:21;;;;;;;4.20;3.25;;;29.30;99.90;;;;;;4902632;29;20067;-92
2022/07/13 09:02:59;;;;;;;4.25;3.10;;;29.80;99.90;;;;;;4894637;29;20100;-91
2022/07/13 09:05:56;;;;;;;9.27;3.13;;;30.20;99.90;;;;;;4889947;29;20037;-92
2022/07/13 09:08:34;;;;;;;7.00;2.67;;;29.90;99.90;;;;;;4941480;23;20048;-92
2022/07/13 09:11:10;;;;;;;8.27;3.30;;;29.40;99.90;;;;;;4911142;29;20071;-92
2022/07/13 09:16:51;;;;;;;8.38;4.32;;;29.00;99.90;;;;;;4916948;29;20048;-93
2022/07/13 09:19:24;;;;;;;7.53;4.55;;;29.40;99.90;;;;;;4907510;29;20040;-92
2022/07/13 09:22:09;;;;;;;7.63;6.00;;;29.60;99.90;;;;;;4917310;29;20041;-92
2022/07/13 09:31:03;;;;;;;8.68;8.07;;;29.30;99.90;;;;;;4981488;28;20090;-93
2022/07/13 11:02:55;;;;;;;9.38;8.80;;;28.50;99.90;;;;;;5143528;23;20046;-92
2022/07/13 11:22:10;;;;;;;8.80;8.30;;;28.90;99.90;;;;;;4976394;28;20042;-89
2022/07/13 11:27:44;;;;;;;8.50;8.00;;;28.60;99.90;;;;;;4959411;29;20032;-90
2022/07/13 11:30:14;;;;;;;8.95;8.32;;;28.60;99.90;;;;;;4942451;29;20031;-90
2022/07/13 11:32:42;;;;;;;9.30;8.65;;;28.30;99.90;;;;;;4943937;29;20511;-90
2022/07/13 11:35:08;;;;;;;9.45;8.90;;;28.20;99.90;;;;;;4942304;29;20035;-90
2022/07/13 11:37:36;;;;;;;14.95;10.75;;;28.30;99.90;;;;;;4941818;29;20027;-91
2022/07/13 11:40:03;;;;;;;10.35;9.75;;;28.30;99.90;;;;;;4942717;29;20134;-89
2022/07/13 11:42:29;;;;;;;10.63;9.93;;;28.40;99.90;;;;;;4943648;29;20019;-89
2022/07/13 11:44:56;;;;;;;10.00;9.50;;;28.60;99.90;;;;;;4944534;29;20034;-91
2022/07/13 11:47:22;;;;;;;10.98;10.23;;;28.50;99.90;;;;;;4943882;29;20089;-93
2022/07/13 11:49:50;;;;;;;10.48;9.45;;;28.50;99.90;;;;;;4965374;29;20035;-90
2022/07/13 11:52:29;;;;;;;10.63;9.75;;;28.40;99.90;;;;;;4949335;29;20031;-90
2022/07/13 11:55:00;;;;;;;10.80;10.20;;;28.60;99.90;;;;;;4944205;29;20043;-93
2022/07/13 11:57:28;;;;;;;10.43;9.65;;;28.60;99.90;;;;;;4944217;29;20031;-89
2022/07/13 12:00:04;;;;;;;10.02;9.43;;;28.70;99.90;;;;;;4946514;29;20030;-91
2022/07/13 12:02:37;;;;;;;10.13;9.70;;;28.50;99.90;;;;;;4959990;29;20106;-91
2022/07/13 12:05:04;;;;;;;10.05;9.57;;;28.30;99.90;;;;;;4924727;29;20126;-90
2022/07/13 12:07:31;;;;;;;10.32;9.63;;;28.50;99.90;;;;;;4908117;29;20036;-91
2022/07/13 12:10:05;;;;;;;10.38;9.68;;;28.60;99.90;;;;;;4907456;29;20032;-88
2022/07/13 12:12:35;;;;;;;;;;;28.80;99.90;;;;;;4922372;29;20031;-91
2022/07/13 12:15:02;;;;;;;10.65;10.00;;;28.80;99.90;;;;;;4906569;29;19918;-89
2022/07/13 12:17:31;;;;;;;10.68;9.98;;;28.70;99.90;;;;;;4905839;29;20035;-91
2022/07/13 12:20:13;;;;;;;11.20;10.32;;;29.00;99.90;;;;;;4909833;29;20060;-91
2022/07/13 12:22:39;;;;;;;11.18;10.38;;;29.20;99.90;;;;;;4906743;29;20095;-90
2022/07/13 12:25:07;;;;;;;10.90;9.93;;;29.10;99.90;;;;;;4907960;29;20031;-91
2022/07/13 12:27:33;;;;;;;10.20;9.70;;;28.90;99.90;;;;;;4910658;29;20028;-92
2022/07/13 12:30:10;;;;;;;11.13;10.30;;;28.70;99.90;;;;;;4906678;29;20126;-90
2022/07/13 12:32:59;;;;;;;10.77;9.98;;;28.50;99.90;;;;;;4905470;29;20028;-89
2022/07/13 12:35:36;;;;;;;10.35;9.65;;;28.30;99.90;;;;;;4909058;29;20099;-93
2022/07/13 12:38:05;;;;;;;9.95;9.45;;;28.50;99.90;;;;;;4907761;29;20039;-92
2022/07/13 12:40:44;;;;;;;10.15;9.27;;;28.50;99.90;;;;;;4909372;29;20055;-91
2022/07/13 12:43:21;;;;;;;10.02;9.35;;;28.70;99.90;;;;;;4907254;29;20122;-90
2022/07/13 12:45:54;;;;;;;10.65;9.85;;;28.20;99.90;;;;;;4906273;29;20031;-90
2022/07/13 12:48:33;;;;;;;10.15;9.55;;;28.20;99.90;;;;;;4909961;29;20106;-92
2022/07/13 12:51:02;;;;;;;10.35;9.82;;;28.40;99.90;;;;;;4922784;29;20530;-92
2022/07/13 12:53:51;;;;;;;10.48;9.63;;;28.30;99.90;;;;;;4907637;29;20058;-94
2022/07/13 12:56:26;;;;;;;10.63;9.73;;;27.90;99.90;;;;;;4908517;29;20063;-93
2022/07/13 12:58:55;;;;;;;9.80;9.10;;;28.10;99.90;;;;;;4906431;29;20126;-92
2022/07/13 13:01:32;;;;;;;10.02;9.43;;;28.20;99.90;;;;;;4905563;29;20545;-91
2022/07/13 13:04:01;;;;;;;10.20;9.50;;;28.30;99.90;;;;;;4906476;29;20031;-91
2022/07/13 13:06:27;;;;;;;10.07;9.50;;;28.20;99.90;;;;;;4908246;29;20078;-92
2022/07/13 13:09:04;;;;;;;10.60;10.00;;;28.20;99.90;;;;;;4924170;29;20032;-92
2022/07/13 13:11:36;;;;;;;10.73;10.02;;;28.50;99.90;;;;;;4910562;29;20044;-93
2022/07/13 13:14:04;;;;;;;9.73;9.10;;;28.60;99.90;;;;;;4896035;29;20053;-93
2022/07/13 13:16:31;;;;;;;9.85;9.35;;;28.50;99.90;;;;;;4906797;29;20104;-93
2022/07/13 13:18:59;;;;;;;10.68;10.02;;;28.40;99.90;;;;;;4905043;29;20032;-91
2022/07/13 13:21:26;;;;;;;10.70;10.10;;;28.40;99.90;;;;;;4934713;29;20043;-93
2022/07/13 13:23:52;;;;;;;10.20;9.70;;;28.80;99.90;;;;;;4943715;29;20046;-92
2022/07/13 13:26:19;;;;;;;10.32;9.60;;;29.00;99.90;;;;;;4943183;29;20040;-93
2022/07/13 13:31:30;;;;;;;10.70;10.10;;;28.60;99.90;;;;;;4939869;29;20128;-94
2022/07/13 13:33:56;;;;;;;10.70;10.02;;;28.70;99.90;;;;;;4941645;29;20114;-92
2022/07/13 13:36:22;;;;;;;10.25;9.75;;;28.60;99.90;;;;;;4926259;29;20071;-92
2022/07/13 13:38:49;;;;;;;10.30;9.77;;;28.50;99.90;;;;;;4941807;29;20027;-91
2022/07/13 13:41:15;;;;;;;10.40;9.70;;;28.60;99.90;;;;;;4938876;29;20027;-91
2022/07/13 13:43:41;;;;;;;10.20;9.60;;;28.40;99.60;;;;;;4945645;29;20054;-92
2022/07/13 13:46:08;;;;;;;10.60;9.80;;;28.20;99.90;;;;;;4945096;29;20499;-92
2022/07/13 13:48:35;;;;;;;9.85;9.45;;;28.30;99.90;;;;;;4928004;29;20531;-92
2022/07/13 13:51:01;;;;;;;11.73;9.73;;;28.40;99.60;;;;;;4923855;29;20054;-93
2022/07/13 13:53:27;;;;;;;10.48;9.88;;;28.10;99.90;;;;;;4928191;29;20031;-91
2022/07/13 13:55:54;;;;;;;9.88;9.38;;;27.90;99.90;;;;;;4930579;29;20527;-91
2022/07/13 13:58:20;;;;;;;9.98;9.15;;;27.50;99.90;;;;;;4932298;29;20040;-94
2022/07/13 14:00:46;;;;;;;10.15;9.55;;;27.70;99.90;;;;;;4927267;29;20066;-91
2022/07/13 14:03:12;;;;;;;10.60;10.00;;;27.80;99.90;;;;;;4924262;29;20532;-90
2022/07/13 14:05:40;;;;;;;9.50;8.90;;;28.00;99.90;;;;;;4928966;29;20551;-90
2022/07/13 14:08:06;;;;;;;9.77;9.18;;;28.00;99.90;;;;;;4925523;29;20055;-91
2022/07/13 14:10:32;;;;;;;10.68;9.30;;;28.10;99.90;;;;;;4931376;29;20035;-92
2022/07/13 14:13:00;;;;;;;9.85;9.30;;;28.20;99.90;;;;;;4932486;29;20027;-91
2022/07/13 14:15:26;;;;;;;9.90;9.20;;;28.00;99.90;;;;;;4931162;29;20031;-91
2022/07/13 14:17:52;;;;;;;9.88;9.38;;;28.10;99.90;;;;;;4944077;29;20066;-92
2022/07/13 14:20:21;;;;;;;9.60;9.13;;;28.20;99.90;;;;;;4947017;29;20063;-91
2022/07/13 14:22:48;;;;;;;9.73;9.23;;;28.10;99.90;;;;;;4945177;29;20114;-92
2022/07/13 14:25:14;;;;;;;10.32;9.50;;;28.00;99.70;;;;;;4950166;29;20082;-91
2022/07/13 14:27:41;;;;;;;10.00;9.40;;;28.10;99.50;;;;;;4969470;29;20035;-91
2022/07/13 14:30:08;;;;;;;9.73;9.23;;;28.20;99.90;;;;;;4952298;29;20059;-92
2022/07/13 14:32:38;;;;;;;9.95;9.45;;;28.30;99.50;;;;;;4953087;29;20023;-90
2022/07/13 14:35:08;;;;;;;10.25;9.52;;;28.40;97.30;;;;;;4948434;29;20035;-93
2022/07/13 14:37:37;;;;;;;9.63;9.13;;;28.10;97.70;;;;;;4951082;29;20102;-93
2022/07/13 14:40:09;;;;;;;9.93;9.40;;;27.90;99.00;;;;;;4943765;29;20054;-96
2022/07/13 14:42:43;;;;;;;9.85;9.45;;;27.90;98.90;;;;;;4946947;29;20028;-95
2022/07/13 14:45:15;;;;;;;10.20;9.70;;;28.10;99.20;;;;;;4945372;29;20631;-95
2022/07/13 14:47:44;;;;;;;9.95;9.45;;;27.90;98.90;;;;;;4948540;29;20100;-95
2022/07/13 14:50:19;;;;;;;10.15;9.50;;;27.90;99.20;;;;;;4948502;29;20054;-95
2022/07/13 14:52:46;;;;;;;10.07;9.60;;;28.00;98.80;;;;;;4952558;29;20031;-95
2022/07/13 14:55:13;;;;;;;10.20;9.70;;;28.30;99.10;;;;;;4943926;29;20035;-94
2022/07/13 14:57:40;;;;;;;10.18;9.57;;;28.20;99.50;;;;;;4949072;29;20433;-94
2022/07/13 15:00:07;;;;;;;10.07;9.40;;;28.00;99.30;;;;;;4943653;29;20077;-96
2022/07/13 15:02:46;;;;;;;10.00;9.38;;;28.00;99.00;;;;;;4945952;29;20027;-94
2022/07/13 15:05:13;;;;;;;10.38;9.63;;;27.90;98.80;;;;;;4935902;28;20046;-94
2022/07/13 15:07:53;;;;;;;10.23;9.60;;;27.70;99.10;;;;;;4949930;28;20023;-94
2022/07/13 15:10:19;;;;;;;9.60;9.20;;;27.70;99.60;;;;;;4955080;29;20032;-95
2022/07/13 15:12:47;;;;;;;9.80;9.30;;;27.80;98.50;;;;;;4961326;23;20051;-94
2022/07/13 15:15:13;;;;;;;9.70;9.20;;;27.70;98.90;;;;;;4945236;29;20125;-94
2022/07/13 15:17:40;;;;;;;9.55;9.15;;;27.60;98.20;;;;;;4946295;29;20115;-94
2022/07/13 15:20:07;;;;;;;9.50;9.05;;;27.50;97.70;;;;;;4923058;29;20055;-94
2022/07/13 15:22:34;;;;;;;9.80;9.30;;;27.60;98.30;;;;;;4909563;29;20028;-94
2022/07/13 15:25:00;;;;;;;9.60;9.07;;;27.80;98.10;;;;;;4925507;29;20056;-94
2022/07/13 15:27:26;;;;;;;10.20;9.60;;;27.90;98.60;;;;;;4939007;29;20036;-94
2022/07/13 15:29:53;;;;;;;9.48;8.98;;;28.00;98.50;;;;;;4906494;29;20031;-94
2022/07/13 15:32:21;;;;;;;9.60;9.10;;;28.20;98.10;;;;;;4906607;29;20027;-94
2022/07/13 15:34:47;;;;;;;9.52;9.13;;;28.00;96.60;;;;;;4909690;29;20374;-94
2022/07/13 15:37:14;;;;;;;10.13;9.52;;;27.80;96.30;;;;;;4923779;29;20035;-93
2022/07/13 15:39:41;;;;;;;9.70;9.30;;;27.60;97.70;;;;;;4926618;29;20401;-94
2022/07/13 15:42:08;;;;;;;9.45;8.88;;;27.50;98.10;;;;;;4940471;29;20071;-94
2022/07/13 15:44:34;;;;;;;9.80;9.30;;;27.50;97.80;;;;;;4910274;29;20043;-94
2022/07/13 15:47:01;;;;;;;9.73;9.32;;;27.70;96.80;;;;;;4941490;29;20034;-93
2022/07/13 15:49:27;;;;;;;9.68;9.27;;;27.60;96.90;;;;;;4949601;29;20039;-93
2022/07/13 15:51:54;;;;;;;9.65;9.15;;;27.40;97.30;;;;;;4910701;29;20031;-93
2022/07/13 15:54:20;;;;;;;9.70;9.27;;;27.30;98.10;;;;;;4906087;29;20130;-93
2022/07/13 15:56:46;;;;;;;9.80;9.40;;;27.30;97.30;;;;;;4940259;29;20027;-94
2022/07/13 15:59:14;;;;;;;9.93;9.23;;;27.20;97.80;;;;;;4881212;29;20056;-95
2022/07/13 18:27:08;;;;;;;3.00;2.80;;;24.10;99.90;;;;;;4957323;29;20597;-92
2022/07/13 18:29:39;;;;;;;3.60;3.25;;;24.10;99.90;;;;;;4926487;29;20039;-92
2022/07/13 18:32:25;;;;;;;;;;;;;;;;;;;;;
2022/07/13 18:38:26;;;;;;;4.25;2.00;;;23.90;99.90;;;;;;4900747;29;20430;-92
2022/07/13 18:40:56;;;;;;;2.90;1.73;;;23.90;99.90;;;;;;4886696;29;20040;-92